sensor_id;sensor_type;location;lat;lon;timestamp;P1;durP1;ratioP1;P2;durP2;ratioP2
60352;SDS011;46196;52.970;6.954;2024-03-29T00:00:54;4.13;;;2.28;;
60352;SDS011;46196;52.970;6.954;2024-03-29T00:03:21;3.58;;;2.08;;
60352;SDS011;46196;52.970;6.954;2024-03-29T00:05:47;3.25;;;1.90;;
60352;SDS011;46196;52.970;6.954;2024-03-29T00:08:13;4.32;;;2.13;;
60352;SDS011;46196;52.970;6.954;2024-03-29T00:10:38;2.85;;;1.90;;
60352;SDS011;46196;52.970;6.954;2024-03-29T00:13:04;4.20;;;2.10;;
60352;SDS011;46196;52.970;6.954;2024-03-29T00:15:33;6.13;;;2.13;;
60352;SDS011;46196;52.970;6.954;2024-03-29T00:17:59;5.43;;;2.08;;
60352;SDS011;46196;52.970;6.954;2024-03-29T00:20:24;3.25;;;1.90;;
60352;SDS011;46196;52.970;6.954;2024-03-29T00:22:50;4.03;;;2.03;;
60352;SDS011;46196;52.970;6.954;2024-03-29T00:25:16;7.50;;;2.05;;
60352;SDS011;46196;52.970;6.954;2024-03-29T00:27:42;4.85;;;2.33;;
60352;SDS011;46196;52.970;6.954;2024-03-29T00:30:09;4.55;;;1.90;;
60352;SDS011;46196;52.970;6.954;2024-03-29T00:32:35;3.95;;;1.90;;
60352;SDS011;46196;52.970;6.954;2024-03-29T00:35:01;5.32;;;1.98;;
60352;SDS011;46196;52.970;6.954;2024-03-29T00:37:27;4.65;;;2.10;;
60352;SDS011;46196;52.970;6.954;2024-03-29T00:39:53;5.93;;;2.30;;
60352;SDS011;46196;52.970;6.954;2024-03-29T00:42:18;3.53;;;1.90;;
60352;SDS011;46196;52.970;6.954;2024-03-29T00:44:46;3.55;;;2.00;;
60352;SDS011;46196;52.970;6.954;2024-03-29T00:47:11;4.93;;;2.00;;
60352;SDS011;46196;52.970;6.954;2024-03-29T00:49:38;3.80;;;2.20;;
60352;SDS011;46196;52.970;6.954;2024-03-29T00:52:04;5.07;;;1.80;;
60352;SDS011;46196;52.970;6.954;2024-03-29T00:54:30;3.08;;;1.80;;
60352;SDS011;46196;52.970;6.954;2024-03-29T00:56:56;8.88;;;2.25;;
60352;SDS011;46196;52.970;6.954;2024-03-29T00:59:22;2.75;;;2.10;;
60352;SDS011;46196;52.970;6.954;2024-03-29T01:01:49;3.65;;;1.92;;
60352;SDS011;46196;52.970;6.954;2024-03-29T01:04:15;4.35;;;2.10;;
60352;SDS011;46196;52.970;6.954;2024-03-29T01:06:41;4.95;;;2.10;;
60352;SDS011;46196;52.970;6.954;2024-03-29T01:09:07;6.38;;;2.03;;
60352;SDS011;46196;52.970;6.954;2024-03-29T01:11:36;5.03;;;2.20;;
60352;SDS011;46196;52.970;6.954;2024-03-29T01:14:02;3.83;;;1.90;;
60352;SDS011;46196;52.970;6.954;2024-03-29T01:16:28;5.22;;;2.13;;
60352;SDS011;46196;52.970;6.954;2024-03-29T01:18:53;4.85;;;1.85;;
60352;SDS011;46196;52.970;6.954;2024-03-29T01:21:20;3.45;;;2.00;;
60352;SDS011;46196;52.970;6.954;2024-03-29T01:23:45;4.38;;;1.80;;
60352;SDS011;46196;52.970;6.954;2024-03-29T01:26:11;3.95;;;1.98;;
60352;SDS011;46196;52.970;6.954;2024-03-29T01:28:37;4.65;;;1.92;;
60352;SDS011;46196;52.970;6.954;2024-03-29T01:31:04;4.40;;;1.80;;
60352;SDS011;46196;52.970;6.954;2024-03-29T01:33:30;2.90;;;1.95;;
60352;SDS011;46196;52.970;6.954;2024-03-29T01:36:02;4.38;;;1.95;;
60352;SDS011;46196;52.970;6.954;2024-03-29T01:38:31;5.10;;;1.93;;
60352;SDS011;46196;52.970;6.954;2024-03-29T01:40:57;3.90;;;1.85;;
60352;SDS011;46196;52.970;6.954;2024-03-29T01:43:23;4.15;;;1.90;;
60352;SDS011;46196;52.970;6.954;2024-03-29T01:45:50;4.40;;;1.80;;
60352;SDS011;46196;52.970;6.954;2024-03-29T01:48:18;5.77;;;2.00;;
60352;SDS011;46196;52.970;6.954;2024-03-29T01:50:45;7.03;;;2.30;;
60352;SDS011;46196;52.970;6.954;2024-03-29T01:53:13;4.55;;;2.28;;
60352;SDS011;46196;52.970;6.954;2024-03-29T01:55:40;4.28;;;1.98;;
60352;SDS011;46196;52.970;6.954;2024-03-29T01:58:07;3.67;;;2.00;;
60352;SDS011;46196;52.970;6.954;2024-03-29T02:03:04;4.93;;;2.22;;
60352;SDS011;46196;52.970;6.954;2024-03-29T02:05:35;4.45;;;2.08;;
60352;SDS011;46196;52.970;6.954;2024-03-29T02:08:01;3.45;;;2.00;;
60352;SDS011;46196;52.970;6.954;2024-03-29T02:10:29;7.50;;;2.17;;
60352;SDS011;46196;52.970;6.954;2024-03-29T02:12:54;4.35;;;1.90;;
60352;SDS011;46196;52.970;6.954;2024-03-29T02:15:20;3.33;;;2.15;;
60352;SDS011;46196;52.970;6.954;2024-03-29T02:17:46;3.67;;;2.08;;
60352;SDS011;46196;52.970;6.954;2024-03-29T02:20:12;4.60;;;2.28;;
60352;SDS011;46196;52.970;6.954;2024-03-29T02:22:43;3.10;;;2.10;;
60352;SDS011;46196;52.970;6.954;2024-03-29T02:25:11;3.60;;;2.20;;
60352;SDS011;46196;52.970;6.954;2024-03-29T02:27:38;3.92;;;2.00;;
60352;SDS011;46196;52.970;6.954;2024-03-29T02:30:04;3.15;;;1.90;;
60352;SDS011;46196;52.970;6.954;2024-03-29T02:32:30;4.97;;;2.08;;
60352;SDS011;46196;52.970;6.954;2024-03-29T02:34:56;5.93;;;2.10;;
60352;SDS011;46196;52.970;6.954;2024-03-29T02:37:21;4.20;;;1.90;;
60352;SDS011;46196;52.970;6.954;2024-03-29T02:39:47;4.60;;;1.80;;
60352;SDS011;46196;52.970;6.954;2024-03-29T02:42:13;4.00;;;1.92;;
60352;SDS011;46196;52.970;6.954;2024-03-29T02:44:38;2.20;;;1.92;;
60352;SDS011;46196;52.970;6.954;2024-03-29T02:47:04;5.05;;;2.25;;
60352;SDS011;46196;52.970;6.954;2024-03-29T02:49:30;6.97;;;2.08;;
60352;SDS011;46196;52.970;6.954;2024-03-29T02:51:55;6.03;;;2.10;;
60352;SDS011;46196;52.970;6.954;2024-03-29T02:54:22;6.95;;;1.85;;
60352;SDS011;46196;52.970;6.954;2024-03-29T02:56:47;5.40;;;2.20;;
60352;SDS011;46196;52.970;6.954;2024-03-29T02:59:13;4.80;;;2.00;;
60352;SDS011;46196;52.970;6.954;2024-03-29T03:01:39;3.78;;;1.90;;
60352;SDS011;46196;52.970;6.954;2024-03-29T03:04:05;4.32;;;1.88;;
60352;SDS011;46196;52.970;6.954;2024-03-29T03:06:31;2.90;;;1.90;;
60352;SDS011;46196;52.970;6.954;2024-03-29T03:08:57;4.28;;;1.80;;
60352;SDS011;46196;52.970;6.954;2024-03-29T03:11:41;10.25;;;2.00;;
60352;SDS011;46196;52.970;6.954;2024-03-29T03:14:07;5.65;;;2.10;;
60352;SDS011;46196;52.970;6.954;2024-03-29T03:16:32;5.30;;;2.10;;
60352;SDS011;46196;52.970;6.954;2024-03-29T03:18:58;4.93;;;2.20;;
60352;SDS011;46196;52.970;6.954;2024-03-29T03:21:24;3.42;;;1.70;;
60352;SDS011;46196;52.970;6.954;2024-03-29T03:23:50;2.35;;;1.80;;
60352;SDS011;46196;52.970;6.954;2024-03-29T03:26:16;5.93;;;2.03;;
60352;SDS011;46196;52.970;6.954;2024-03-29T03:28:41;4.78;;;1.80;;
60352;SDS011;46196;52.970;6.954;2024-03-29T03:31:07;5.32;;;2.10;;
60352;SDS011;46196;52.970;6.954;2024-03-29T03:33:34;3.97;;;1.90;;
60352;SDS011;46196;52.970;6.954;2024-03-29T03:36:00;5.15;;;1.83;;
60352;SDS011;46196;52.970;6.954;2024-03-29T03:38:25;3.70;;;2.00;;
60352;SDS011;46196;52.970;6.954;2024-03-29T03:40:51;3.78;;;2.00;;
60352;SDS011;46196;52.970;6.954;2024-03-29T03:43:17;3.17;;;1.90;;
60352;SDS011;46196;52.970;6.954;2024-03-29T03:45:42;3.80;;;1.92;;
60352;SDS011;46196;52.970;6.954;2024-03-29T03:48:09;5.10;;;2.05;;
60352;SDS011;46196;52.970;6.954;2024-03-29T03:50:36;4.28;;;2.00;;
60352;SDS011;46196;52.970;6.954;2024-03-29T03:53:03;3.22;;;1.67;;
60352;SDS011;46196;52.970;6.954;2024-03-29T03:55:28;2.50;;;1.80;;
60352;SDS011;46196;52.970;6.954;2024-03-29T03:57:54;3.10;;;2.05;;
60352;SDS011;46196;52.970;6.954;2024-03-29T04:00:20;2.50;;;1.80;;
60352;SDS011;46196;52.970;6.954;2024-03-29T04:02:47;5.03;;;2.08;;
60352;SDS011;46196;52.970;6.954;2024-03-29T04:05:14;7.05;;;2.25;;
60352;SDS011;46196;52.970;6.954;2024-03-29T04:07:41;4.55;;;2.13;;
60352;SDS011;46196;52.970;6.954;2024-03-29T04:10:06;4.07;;;2.20;;
60352;SDS011;46196;52.970;6.954;2024-03-29T04:12:32;4.88;;;1.90;;
60352;SDS011;46196;52.970;6.954;2024-03-29T04:14:58;5.05;;;1.90;;
60352;SDS011;46196;52.970;6.954;2024-03-29T04:17:23;3.55;;;2.08;;
60352;SDS011;46196;52.970;6.954;2024-03-29T04:19:49;2.45;;;1.80;;
60352;SDS011;46196;52.970;6.954;2024-03-29T04:22:15;5.93;;;2.42;;
60352;SDS011;46196;52.970;6.954;2024-03-29T04:24:40;4.97;;;2.10;;
60352;SDS011;46196;52.970;6.954;2024-03-29T04:27:06;5.85;;;1.90;;
60352;SDS011;46196;52.970;6.954;2024-03-29T04:29:31;4.00;;;2.00;;
60352;SDS011;46196;52.970;6.954;2024-03-29T04:31:57;4.88;;;2.45;;
60352;SDS011;46196;52.970;6.954;2024-03-29T04:34:23;5.70;;;2.03;;
60352;SDS011;46196;52.970;6.954;2024-03-29T04:36:48;5.47;;;2.22;;
60352;SDS011;46196;52.970;6.954;2024-03-29T04:39:14;3.33;;;2.38;;
60352;SDS011;46196;52.970;6.954;2024-03-29T04:41:40;8.30;;;2.63;;
60352;SDS011;46196;52.970;6.954;2024-03-29T04:44:05;5.20;;;2.10;;
60352;SDS011;46196;52.970;6.954;2024-03-29T04:46:33;5.57;;;2.65;;
60352;SDS011;46196;52.970;6.954;2024-03-29T04:48:58;4.35;;;2.20;;
60352;SDS011;46196;52.970;6.954;2024-03-29T04:51:24;4.13;;;2.00;;
60352;SDS011;46196;52.970;6.954;2024-03-29T04:53:50;3.55;;;2.10;;
60352;SDS011;46196;52.970;6.954;2024-03-29T04:56:15;4.60;;;2.00;;
60352;SDS011;46196;52.970;6.954;2024-03-29T04:58:42;4.78;;;2.13;;
60352;SDS011;46196;52.970;6.954;2024-03-29T05:01:07;4.47;;;1.92;;
60352;SDS011;46196;52.970;6.954;2024-03-29T05:03:33;6.43;;;2.03;;
60352;SDS011;46196;52.970;6.954;2024-03-29T05:05:58;4.30;;;1.90;;
60352;SDS011;46196;52.970;6.954;2024-03-29T05:08:24;4.80;;;2.08;;
60352;SDS011;46196;52.970;6.954;2024-03-29T05:10:50;5.30;;;2.22;;
60352;SDS011;46196;52.970;6.954;2024-03-29T05:13:16;3.22;;;1.92;;
60352;SDS011;46196;52.970;6.954;2024-03-29T05:15:44;5.70;;;2.20;;
60352;SDS011;46196;52.970;6.954;2024-03-29T05:18:10;3.70;;;2.13;;
60352;SDS011;46196;52.970;6.954;2024-03-29T05:20:36;6.55;;;2.25;;
60352;SDS011;46196;52.970;6.954;2024-03-29T05:23:02;7.07;;;2.17;;
60352;SDS011;46196;52.970;6.954;2024-03-29T05:25:27;5.70;;;2.63;;
60352;SDS011;46196;52.970;6.954;2024-03-29T05:27:53;3.70;;;2.00;;
60352;SDS011;46196;52.970;6.954;2024-03-29T05:30:19;2.50;;;1.77;;
60352;SDS011;46196;52.970;6.954;2024-03-29T05:32:45;6.13;;;2.30;;
60352;SDS011;46196;52.970;6.954;2024-03-29T05:35:10;8.20;;;2.20;;
60352;SDS011;46196;52.970;6.954;2024-03-29T05:37:36;3.95;;;1.98;;
60352;SDS011;46196;52.970;6.954;2024-03-29T05:40:02;5.32;;;1.90;;
60352;SDS011;46196;52.970;6.954;2024-03-29T05:42:32;4.80;;;2.22;;
60352;SDS011;46196;52.970;6.954;2024-03-29T05:44:59;3.83;;;2.05;;
60352;SDS011;46196;52.970;6.954;2024-03-29T05:47:25;4.15;;;2.30;;
60352;SDS011;46196;52.970;6.954;2024-03-29T05:49:51;2.33;;;1.83;;
60352;SDS011;46196;52.970;6.954;2024-03-29T05:52:19;5.95;;;2.28;;
60352;SDS011;46196;52.970;6.954;2024-03-29T05:54:45;5.18;;;1.88;;
60352;SDS011;46196;52.970;6.954;2024-03-29T05:57:11;2.70;;;1.90;;
60352;SDS011;46196;52.970;6.954;2024-03-29T05:59:37;3.55;;;1.90;;
60352;SDS011;46196;52.970;6.954;2024-03-29T06:02:03;5.35;;;2.10;;
60352;SDS011;46196;52.970;6.954;2024-03-29T06:04:30;3.78;;;1.95;;
60352;SDS011;46196;52.970;6.954;2024-03-29T06:07:00;2.42;;;1.70;;
60352;SDS011;46196;52.970;6.954;2024-03-29T06:09:27;3.53;;;1.75;;
60352;SDS011;46196;52.970;6.954;2024-03-29T06:11:53;3.88;;;1.85;;
60352;SDS011;46196;52.970;6.954;2024-03-29T06:14:20;3.03;;;1.80;;
60352;SDS011;46196;52.970;6.954;2024-03-29T06:17:05;4.60;;;2.03;;
60352;SDS011;46196;52.970;6.954;2024-03-29T06:19:49;5.03;;;1.90;;
60352;SDS011;46196;52.970;6.954;2024-03-29T06:22:16;3.70;;;1.80;;
60352;SDS011;46196;52.970;6.954;2024-03-29T06:24:43;3.83;;;1.80;;
60352;SDS011;46196;52.970;6.954;2024-03-29T06:27:09;3.70;;;1.85;;
60352;SDS011;46196;52.970;6.954;2024-03-29T06:29:35;4.07;;;1.70;;
60352;SDS011;46196;52.970;6.954;2024-03-29T06:32:01;2.47;;;1.73;;
60352;SDS011;46196;52.970;6.954;2024-03-29T06:34:30;4.28;;;1.75;;
60352;SDS011;46196;52.970;6.954;2024-03-29T06:36:56;3.95;;;1.92;;
60352;SDS011;46196;52.970;6.954;2024-03-29T06:39:22;3.20;;;1.80;;
60352;SDS011;46196;52.970;6.954;2024-03-29T06:41:47;2.15;;;1.60;;
60352;SDS011;46196;52.970;6.954;2024-03-29T06:44:13;3.13;;;1.70;;
60352;SDS011;46196;52.970;6.954;2024-03-29T06:46:39;4.47;;;1.58;;
60352;SDS011;46196;52.970;6.954;2024-03-29T06:49:04;2.60;;;1.80;;
60352;SDS011;46196;52.970;6.954;2024-03-29T06:51:31;4.03;;;1.90;;
60352;SDS011;46196;52.970;6.954;2024-03-29T06:53:56;3.38;;;1.80;;
60352;SDS011;46196;52.970;6.954;2024-03-29T06:56:22;3.53;;;1.83;;
60352;SDS011;46196;52.970;6.954;2024-03-29T06:58:47;2.38;;;1.92;;
60352;SDS011;46196;52.970;6.954;2024-03-29T07:01:13;3.88;;;1.90;;
60352;SDS011;46196;52.970;6.954;2024-03-29T07:03:39;4.82;;;1.77;;
60352;SDS011;46196;52.970;6.954;2024-03-29T07:06:06;1.83;;;1.58;;
60352;SDS011;46196;52.970;6.954;2024-03-29T07:08:31;1.85;;;1.55;;
60352;SDS011;46196;52.970;6.954;2024-03-29T07:10:58;3.90;;;1.95;;
60352;SDS011;46196;52.970;6.954;2024-03-29T07:13:24;3.25;;;1.77;;
60352;SDS011;46196;52.970;6.954;2024-03-29T07:15:53;2.35;;;2.08;;
60352;SDS011;46196;52.970;6.954;2024-03-29T07:18:18;6.35;;;2.08;;
60352;SDS011;46196;52.970;6.954;2024-03-29T07:20:44;2.42;;;1.70;;
60352;SDS011;46196;52.970;6.954;2024-03-29T07:23:09;4.03;;;1.83;;
60352;SDS011;46196;52.970;6.954;2024-03-29T07:25:39;3.67;;;1.90;;
60352;SDS011;46196;52.970;6.954;2024-03-29T07:28:05;4.05;;;1.70;;
60352;SDS011;46196;52.970;6.954;2024-03-29T07:30:31;2.05;;;1.67;;
60352;SDS011;46196;52.970;6.954;2024-03-29T07:32:57;1.92;;;1.70;;
60352;SDS011;46196;52.970;6.954;2024-03-29T07:35:22;2.60;;;1.90;;
60352;SDS011;46196;52.970;6.954;2024-03-29T07:37:49;2.90;;;1.75;;
60352;SDS011;46196;52.970;6.954;2024-03-29T07:40:16;5.35;;;2.00;;
60352;SDS011;46196;52.970;6.954;2024-03-29T07:42:41;4.35;;;2.05;;
60352;SDS011;46196;52.970;6.954;2024-03-29T07:45:07;7.25;;;2.25;;
60352;SDS011;46196;52.970;6.954;2024-03-29T07:47:33;5.55;;;2.10;;
60352;SDS011;46196;52.970;6.954;2024-03-29T07:49:59;2.78;;;1.80;;
60352;SDS011;46196;52.970;6.954;2024-03-29T07:52:25;4.68;;;2.13;;
60352;SDS011;46196;52.970;6.954;2024-03-29T07:54:51;3.60;;;2.10;;
60352;SDS011;46196;52.970;6.954;2024-03-29T07:57:16;3.28;;;1.92;;
60352;SDS011;46196;52.970;6.954;2024-03-29T07:59:42;2.60;;;2.00;;
60352;SDS011;46196;52.970;6.954;2024-03-29T08:02:08;2.95;;;2.15;;
60352;SDS011;46196;52.970;6.954;2024-03-29T08:04:34;3.35;;;2.20;;
60352;SDS011;46196;52.970;6.954;2024-03-29T08:07:00;4.63;;;2.20;;
60352;SDS011;46196;52.970;6.954;2024-03-29T08:09:26;4.10;;;2.10;;
60352;SDS011;46196;52.970;6.954;2024-03-29T08:11:51;4.82;;;2.10;;
60352;SDS011;46196;52.970;6.954;2024-03-29T08:14:17;3.28;;;2.40;;
60352;SDS011;46196;52.970;6.954;2024-03-29T08:16:43;4.78;;;2.35;;
60352;SDS011;46196;52.970;6.954;2024-03-29T08:19:09;2.88;;;2.10;;
60352;SDS011;46196;52.970;6.954;2024-03-29T08:21:35;5.63;;;2.60;;
60352;SDS011;46196;52.970;6.954;2024-03-29T08:24:01;2.95;;;2.47;;
60352;SDS011;46196;52.970;6.954;2024-03-29T08:26:29;4.82;;;2.45;;
60352;SDS011;46196;52.970;6.954;2024-03-29T08:28:55;5.70;;;2.67;;
60352;SDS011;46196;52.970;6.954;2024-03-29T08:31:21;5.90;;;2.70;;
60352;SDS011;46196;52.970;6.954;2024-03-29T08:33:47;3.70;;;2.40;;
60352;SDS011;46196;52.970;6.954;2024-03-29T08:36:13;4.53;;;2.60;;
60352;SDS011;46196;52.970;6.954;2024-03-29T08:38:38;6.15;;;2.58;;
60352;SDS011;46196;52.970;6.954;2024-03-29T08:41:07;3.87;;;2.40;;
60352;SDS011;46196;52.970;6.954;2024-03-29T08:43:33;3.92;;;2.47;;
60352;SDS011;46196;52.970;6.954;2024-03-29T08:45:59;4.72;;;2.80;;
60352;SDS011;46196;52.970;6.954;2024-03-29T08:48:26;4.55;;;2.63;;
60352;SDS011;46196;52.970;6.954;2024-03-29T08:50:52;3.08;;;2.28;;
60352;SDS011;46196;52.970;6.954;2024-03-29T08:53:18;4.88;;;2.47;;
60352;SDS011;46196;52.970;6.954;2024-03-29T08:55:45;3.47;;;2.33;;
60352;SDS011;46196;52.970;6.954;2024-03-29T08:58:11;6.47;;;2.63;;
60352;SDS011;46196;52.970;6.954;2024-03-29T09:00:37;4.57;;;2.50;;
60352;SDS011;46196;52.970;6.954;2024-03-29T09:03:03;4.30;;;2.40;;
60352;SDS011;46196;52.970;6.954;2024-03-29T09:05:29;4.13;;;2.45;;
60352;SDS011;46196;52.970;6.954;2024-03-29T09:07:55;5.45;;;2.42;;
60352;SDS011;46196;52.970;6.954;2024-03-29T09:10:22;4.78;;;2.50;;
60352;SDS011;46196;52.970;6.954;2024-03-29T09:12:49;3.65;;;2.70;;
60352;SDS011;46196;52.970;6.954;2024-03-29T09:15:14;4.38;;;2.42;;
60352;SDS011;46196;52.970;6.954;2024-03-29T09:17:43;5.03;;;2.28;;
60352;SDS011;46196;52.970;6.954;2024-03-29T09:20:10;3.35;;;2.30;;
60352;SDS011;46196;52.970;6.954;2024-03-29T09:22:36;3.17;;;2.10;;
60352;SDS011;46196;52.970;6.954;2024-03-29T09:25:03;5.05;;;2.13;;
60352;SDS011;46196;52.970;6.954;2024-03-29T09:27:29;3.85;;;2.20;;
60352;SDS011;46196;52.970;6.954;2024-03-29T09:29:55;3.33;;;2.20;;
60352;SDS011;46196;52.970;6.954;2024-03-29T09:32:22;2.88;;;2.30;;
60352;SDS011;46196;52.970;6.954;2024-03-29T09:34:48;3.85;;;2.45;;
60352;SDS011;46196;52.970;6.954;2024-03-29T09:37:14;3.92;;;2.20;;
60352;SDS011;46196;52.970;6.954;2024-03-29T09:39:40;2.92;;;2.10;;
60352;SDS011;46196;52.970;6.954;2024-03-29T09:42:06;2.90;;;2.15;;
60352;SDS011;46196;52.970;6.954;2024-03-29T09:44:32;3.58;;;2.40;;
60352;SDS011;46196;52.970;6.954;2024-03-29T09:47:02;3.85;;;2.20;;
60352;SDS011;46196;52.970;6.954;2024-03-29T09:49:30;2.50;;;1.92;;
60352;SDS011;46196;52.970;6.954;2024-03-29T09:51:57;4.75;;;2.40;;
60352;SDS011;46196;52.970;6.954;2024-03-29T09:54:28;3.63;;;2.47;;
60352;SDS011;46196;52.970;6.954;2024-03-29T09:56:57;5.05;;;2.40;;
60352;SDS011;46196;52.970;6.954;2024-03-29T09:59:23;3.60;;;2.50;;
60352;SDS011;46196;52.970;6.954;2024-03-29T10:01:51;3.50;;;2.83;;
60352;SDS011;46196;52.970;6.954;2024-03-29T10:04:18;3.60;;;2.30;;
60352;SDS011;46196;52.970;6.954;2024-03-29T10:06:46;3.25;;;2.30;;
60352;SDS011;46196;52.970;6.954;2024-03-29T10:09:16;3.55;;;2.40;;
60352;SDS011;46196;52.970;6.954;2024-03-29T10:11:43;4.07;;;2.60;;
60352;SDS011;46196;52.970;6.954;2024-03-29T10:14:09;4.15;;;2.38;;
60352;SDS011;46196;52.970;6.954;2024-03-29T10:16:35;5.57;;;2.42;;
60352;SDS011;46196;52.970;6.954;2024-03-29T10:19:01;2.90;;;2.05;;
60352;SDS011;46196;52.970;6.954;2024-03-29T10:21:27;4.20;;;2.30;;
60352;SDS011;46196;52.970;6.954;2024-03-29T10:23:53;2.95;;;2.13;;
60352;SDS011;46196;52.970;6.954;2024-03-29T10:26:19;4.70;;;2.25;;
60352;SDS011;46196;52.970;6.954;2024-03-29T10:28:46;4.15;;;2.30;;
60352;SDS011;46196;52.970;6.954;2024-03-29T10:31:12;3.38;;;2.38;;
60352;SDS011;46196;52.970;6.954;2024-03-29T10:33:39;5.97;;;2.75;;
60352;SDS011;46196;52.970;6.954;2024-03-29T10:36:08;5.28;;;2.40;;
60352;SDS011;46196;52.970;6.954;2024-03-29T10:38:37;3.90;;;2.60;;
60352;SDS011;46196;52.970;6.954;2024-03-29T10:41:04;6.07;;;2.50;;
60352;SDS011;46196;52.970;6.954;2024-03-29T10:43:32;4.03;;;2.20;;
60352;SDS011;46196;52.970;6.954;2024-03-29T10:46:01;4.20;;;2.55;;
60352;SDS011;46196;52.970;6.954;2024-03-29T10:48:28;3.95;;;2.13;;
60352;SDS011;46196;52.970;6.954;2024-03-29T10:51:01;4.35;;;2.40;;
60352;SDS011;46196;52.970;6.954;2024-03-29T10:53:27;3.30;;;2.00;;
60352;SDS011;46196;52.970;6.954;2024-03-29T10:55:56;3.05;;;2.20;;
60352;SDS011;46196;52.970;6.954;2024-03-29T10:58:30;5.18;;;2.20;;
60352;SDS011;46196;52.970;6.954;2024-03-29T11:01:00;3.15;;;2.33;;
60352;SDS011;46196;52.970;6.954;2024-03-29T11:06:04;5.45;;;2.35;;
60352;SDS011;46196;52.970;6.954;2024-03-29T11:08:32;4.68;;;2.20;;
60352;SDS011;46196;52.970;6.954;2024-03-29T11:10:59;5.13;;;2.27;;
60352;SDS011;46196;52.970;6.954;2024-03-29T11:16:15;4.10;;;2.38;;
60352;SDS011;46196;52.970;6.954;2024-03-29T11:18:45;5.18;;;2.38;;
60352;SDS011;46196;52.970;6.954;2024-03-29T11:21:12;5.55;;;2.35;;
60352;SDS011;46196;52.970;6.954;2024-03-29T11:23:43;4.75;;;2.70;;
60352;SDS011;46196;52.970;6.954;2024-03-29T11:26:17;5.00;;;2.50;;
60352;SDS011;46196;52.970;6.954;2024-03-29T11:28:50;4.63;;;2.30;;
60352;SDS011;46196;52.970;6.954;2024-03-29T11:31:16;5.90;;;3.20;;
60352;SDS011;46196;52.970;6.954;2024-03-29T11:36:13;5.32;;;3.88;;
60352;SDS011;46196;52.970;6.954;2024-03-29T11:38:52;7.97;;;4.22;;
60352;SDS011;46196;52.970;6.954;2024-03-29T11:41:23;6.25;;;4.18;;
60352;SDS011;46196;52.970;6.954;2024-03-29T11:43:53;5.70;;;3.92;;
60352;SDS011;46196;52.970;6.954;2024-03-29T11:46:19;5.93;;;3.85;;
60352;SDS011;46196;52.970;6.954;2024-03-29T11:48:46;4.68;;;3.72;;
60352;SDS011;46196;52.970;6.954;2024-03-29T11:51:17;6.90;;;4.00;;
60352;SDS011;46196;52.970;6.954;2024-03-29T11:53:46;4.32;;;3.88;;
60352;SDS011;46196;52.970;6.954;2024-03-29T11:56:11;5.10;;;3.58;;
60352;SDS011;46196;52.970;6.954;2024-03-29T11:58:38;4.47;;;3.65;;
60352;SDS011;46196;52.970;6.954;2024-03-29T12:01:04;7.43;;;3.58;;
60352;SDS011;46196;52.970;6.954;2024-03-29T12:03:31;5.18;;;3.42;;
60352;SDS011;46196;52.970;6.954;2024-03-29T12:05:59;4.85;;;3.50;;
60352;SDS011;46196;52.970;6.954;2024-03-29T12:08:46;6.55;;;3.28;;
60352;SDS011;46196;52.970;6.954;2024-03-29T12:11:13;4.53;;;3.25;;
60352;SDS011;46196;52.970;6.954;2024-03-29T12:13:39;4.40;;;2.85;;
60352;SDS011;46196;52.970;6.954;2024-03-29T12:16:06;5.32;;;3.88;;
60352;SDS011;46196;52.970;6.954;2024-03-29T12:18:33;5.55;;;3.50;;
60352;SDS011;46196;52.970;6.954;2024-03-29T12:20:59;6.82;;;3.03;;
60352;SDS011;46196;52.970;6.954;2024-03-29T12:23:25;5.15;;;3.53;;
60352;SDS011;46196;52.970;6.954;2024-03-29T12:25:52;4.55;;;3.20;;
60352;SDS011;46196;52.970;6.954;2024-03-29T12:28:22;4.13;;;3.47;;
60352;SDS011;46196;52.970;6.954;2024-03-29T12:30:48;5.72;;;3.40;;
60352;SDS011;46196;52.970;6.954;2024-03-29T12:33:15;5.20;;;3.47;;
60352;SDS011;46196;52.970;6.954;2024-03-29T12:35:45;4.07;;;3.40;;
60352;SDS011;46196;52.970;6.954;2024-03-29T12:38:15;4.15;;;3.20;;
60352;SDS011;46196;52.970;6.954;2024-03-29T12:40:43;5.25;;;3.50;;
60352;SDS011;46196;52.970;6.954;2024-03-29T12:43:13;5.50;;;3.85;;
60352;SDS011;46196;52.970;6.954;2024-03-29T12:45:40;4.53;;;3.65;;
60352;SDS011;46196;52.970;6.954;2024-03-29T12:48:10;5.90;;;3.88;;
60352;SDS011;46196;52.970;6.954;2024-03-29T12:50:43;6.32;;;3.65;;
60352;SDS011;46196;52.970;6.954;2024-03-29T12:53:10;4.45;;;3.55;;
60352;SDS011;46196;52.970;6.954;2024-03-29T12:55:39;4.40;;;3.60;;
60352;SDS011;46196;52.970;6.954;2024-03-29T12:58:15;5.88;;;3.60;;
60352;SDS011;46196;52.970;6.954;2024-03-29T13:00:42;7.32;;;3.67;;
60352;SDS011;46196;52.970;6.954;2024-03-29T13:03:09;5.05;;;3.75;;
60352;SDS011;46196;52.970;6.954;2024-03-29T13:05:35;6.28;;;3.40;;
60352;SDS011;46196;52.970;6.954;2024-03-29T13:08:06;5.00;;;3.60;;
60352;SDS011;46196;52.970;6.954;2024-03-29T13:10:40;4.65;;;3.72;;
60352;SDS011;46196;52.970;6.954;2024-03-29T13:13:07;4.40;;;3.40;;
60352;SDS011;46196;52.970;6.954;2024-03-29T13:15:34;4.18;;;3.50;;
60352;SDS011;46196;52.970;6.954;2024-03-29T13:18:01;4.65;;;3.67;;
60352;SDS011;46196;52.970;6.954;2024-03-29T13:20:28;4.63;;;3.63;;
60352;SDS011;46196;52.970;6.954;2024-03-29T13:22:55;4.38;;;3.65;;
60352;SDS011;46196;52.970;6.954;2024-03-29T13:25:22;5.57;;;3.40;;
60352;SDS011;46196;52.970;6.954;2024-03-29T13:27:49;6.75;;;3.80;;
60352;SDS011;46196;52.970;6.954;2024-03-29T13:30:18;5.40;;;4.00;;
60352;SDS011;46196;52.970;6.954;2024-03-29T13:32:45;6.00;;;3.90;;
60352;SDS011;46196;52.970;6.954;2024-03-29T13:35:11;4.50;;;3.70;;
60352;SDS011;46196;52.970;6.954;2024-03-29T13:40:13;4.95;;;3.20;;
60352;SDS011;46196;52.970;6.954;2024-03-29T13:42:42;5.15;;;3.55;;
60352;SDS011;46196;52.970;6.954;2024-03-29T13:45:09;4.03;;;3.28;;
60352;SDS011;46196;52.970;6.954;2024-03-29T13:47:42;4.05;;;3.10;;
60352;SDS011;46196;52.970;6.954;2024-03-29T13:50:09;4.45;;;2.95;;
60352;SDS011;46196;52.970;6.954;2024-03-29T13:52:36;3.38;;;2.60;;
60352;SDS011;46196;52.970;6.954;2024-03-29T13:55:02;3.97;;;2.60;;
60352;SDS011;46196;52.970;6.954;2024-03-29T13:57:28;4.15;;;2.75;;
60352;SDS011;46196;52.970;6.954;2024-03-29T13:59:54;3.80;;;2.90;;
60352;SDS011;46196;52.970;6.954;2024-03-29T14:02:20;3.42;;;2.40;;
60352;SDS011;46196;52.970;6.954;2024-03-29T14:04:48;3.97;;;2.20;;
60352;SDS011;46196;52.970;6.954;2024-03-29T14:07:14;4.88;;;2.47;;
60352;SDS011;46196;52.970;6.954;2024-03-29T14:09:42;3.25;;;2.40;;
60352;SDS011;46196;52.970;6.954;2024-03-29T14:12:08;3.03;;;2.20;;
60352;SDS011;46196;52.970;6.954;2024-03-29T14:14:34;3.63;;;2.40;;
60352;SDS011;46196;52.970;6.954;2024-03-29T14:17:01;3.15;;;2.30;;
60352;SDS011;46196;52.970;6.954;2024-03-29T14:19:29;3.22;;;2.30;;
60352;SDS011;46196;52.970;6.954;2024-03-29T14:21:56;3.42;;;2.50;;
60352;SDS011;46196;52.970;6.954;2024-03-29T14:24:22;3.13;;;2.40;;
60352;SDS011;46196;52.970;6.954;2024-03-29T14:26:50;4.90;;;2.47;;
60352;SDS011;46196;52.970;6.954;2024-03-29T14:29:17;4.47;;;2.30;;
60352;SDS011;46196;52.970;6.954;2024-03-29T14:31:46;2.97;;;2.20;;
60352;SDS011;46196;52.970;6.954;2024-03-29T14:34:18;4.93;;;2.70;;
60352;SDS011;46196;52.970;6.954;2024-03-29T14:36:43;5.60;;;2.70;;
60352;SDS011;46196;52.970;6.954;2024-03-29T14:39:10;3.60;;;2.40;;
60352;SDS011;46196;52.970;6.954;2024-03-29T14:41:38;4.47;;;2.50;;
60352;SDS011;46196;52.970;6.954;2024-03-29T14:44:07;3.22;;;2.58;;
60352;SDS011;46196;52.970;6.954;2024-03-29T14:46:33;3.55;;;2.50;;
60352;SDS011;46196;52.970;6.954;2024-03-29T14:49:01;3.90;;;2.50;;
60352;SDS011;46196;52.970;6.954;2024-03-29T14:51:33;3.75;;;2.22;;
60352;SDS011;46196;52.970;6.954;2024-03-29T14:53:59;4.82;;;2.40;;
60352;SDS011;46196;52.970;6.954;2024-03-29T14:56:28;5.40;;;2.40;;
60352;SDS011;46196;52.970;6.954;2024-03-29T14:58:55;4.13;;;2.58;;